Time;durP1;ratioP1;P1;durP2;ratioP2;P2;SDS_P1;SDS_P2;PMS_P1;PMS_P2;Temp;Humidity;BMP_temperature;BMP_pressure;BME280_temperature;BME280_humidity;BME280_pressure;Samples;Min_cycle;Max_cycle;Signal;HPM_P1;HPM_P2
2023/11/13 00:02:03;;;;;;;0.10;0.10;;;;;;;7.85;70.86;97063.03;5050755;28;20036;-73
2023/11/13 00:04:28;;;;;;;0.40;0.20;;;;;;;7.72;71.06;97057.47;5052006;28;20064;-71
2023/11/13 00:06:54;;;;;;;1.55;0.30;;;;;;;7.62;71.48;97063.00;5027474;28;20443;-73
2023/11/13 00:09:19;;;;;;;0.20;0.10;;;;;;;7.57;70.99;97052.84;5037745;28;20033;-72
2023/11/13 00:11:45;;;;;;;0.30;0.20;;;;;;;7.53;71.47;97072.84;5036702;28;20036;-71
2023/11/13 00:14:11;;;;;;;0.35;0.10;;;;;;;7.29;71.95;97047.13;5056071;28;20221;-72
2023/11/13 00:16:36;;;;;;;0.10;0.10;;;;;;;7.38;72.37;97058.59;5056545;28;20406;-72
2023/11/13 00:19:03;;;;;;;0.10;0.10;;;;;;;7.30;72.55;97049.63;5056179;28;20045;-73
2023/11/13 00:21:29;;;;;;;0.10;0.10;;;;;;;7.31;73.04;97061.94;5038572;28;20052;-73
2023/11/13 00:23:57;;;;;;;0.20;0.03;;;;;;;7.31;72.85;97069.94;5054771;28;20413;-72
2023/11/13 00:26:25;;;;;;;0.47;0.10;;;;;;;7.24;72.99;97060.97;5053196;28;20090;-71
2023/11/13 00:28:50;;;;;;;0.65;0.17;;;;;;;7.32;72.85;97076.06;5055219;28;20039;-72
2023/11/13 00:31:16;;;;;;;0.30;0.30;;;;;;;7.24;73.54;97066.28;5056101;28;20036;-73
2023/11/13 00:33:42;;;;;;;0.10;0.10;;;;;;;7.24;73.03;97068.97;5056187;28;20765;-72
2023/11/13 00:36:08;;;;;;;1.67;0.10;;;;;;;7.06;72.96;97026.56;5052937;28;20108;-72
2023/11/13 00:38:34;;;;;;;0.40;0.10;;;;;;;7.31;72.76;97077.06;5056090;28;20037;-71
2023/11/13 00:40:59;;;;;;;1.38;0.30;;;;;;;7.23;72.68;97069.13;5055862;28;20071;-74
2023/11/13 00:43:25;;;;;;;0.75;0.20;;;;;;;7.23;72.65;97066.44;5055387;28;20125;-72
2023/11/13 00:45:51;;;;;;;0.20;0.10;;;;;;;6.99;72.74;97042.41;5053416;28;20484;-74
2023/11/13 00:48:18;;;;;;;0.15;0.10;;;;;;;7.18;72.88;97069.63;5055804;28;20051;-73
2023/11/13 00:50:43;;;;;;;0.10;0.10;;;;;;;7.21;72.31;97076.44;5055420;28;20036;-73
2023/11/13 00:53:10;;;;;;;0.55;0.10;;;;;;;7.23;72.56;97080.56;5053822;28;20029;-72
2023/11/13 00:55:36;;;;;;;0.15;0.10;;;;;;;7.16;72.28;97080.44;5035023;28;20045;-73
2023/11/13 00:58:02;;;;;;;0.25;0.20;;;;;;;7.15;73.01;97081.44;5035667;28;20033;-73
2023/11/13 01:00:28;;;;;;;1.95;0.30;;;;;;;7.16;72.55;97083.09;5035647;28;20030;-72
2023/11/13 01:02:54;;;;;;;1.20;0.20;;;;;;;7.12;72.91;97072.97;5035659;28;20053;-69
2023/11/13 01:05:20;;;;;;;1.35;0.15;;;;;;;7.16;72.40;97080.44;5036823;28;20095;-72
2023/11/13 01:07:45;;;;;;;1.30;0.10;;;;;;;7.12;72.66;97080.94;5035713;28;20048;-73
2023/11/13 01:10:11;;;;;;;0.22;0.13;;;;;;;7.12;72.67;97084.44;5034329;28;20034;-74
2023/11/13 01:12:37;;;;;;;0.30;0.10;;;;;;;7.20;72.14;97088.09;5034257;28;20029;-73
2023/11/13 01:15:06;;;;;;;0.13;0.10;;;;;;;7.13;72.44;97085.25;5035566;28;20098;-73
2023/11/13 01:17:32;;;;;;;0.20;0.10;;;;;;;7.16;72.03;97092.91;5035452;28;20029;-73
2023/11/13 01:19:58;;;;;;;0.17;0.10;;;;;;;7.13;72.15;97087.94;5033874;28;20352;-73
2023/11/13 01:22:24;;;;;;;0.17;0.10;;;;;;;7.00;72.42;97076.00;5039508;28;20078;-72
2023/11/13 01:24:50;;;;;;;0.10;0.10;;;;;;;7.09;72.03;97105.22;5055119;28;20067;-73
2023/11/13 01:27:16;;;;;;;0.20;0.20;;;;;;;6.99;72.30;97087.63;5053258;28;20487;-72
2023/11/13 01:29:41;;;;;;;0.10;0.10;;;;;;;7.03;72.16;97093.44;5054839;28;20042;-72
2023/11/13 01:32:07;;;;;;;0.10;0.10;;;;;;;6.95;72.09;97086.28;5053051;28;20033;-73
2023/11/13 01:34:33;;;;;;;0.10;0.10;;;;;;;6.92;72.34;97091.13;5036992;28;20036;-72
2023/11/13 01:36:58;;;;;;;0.35;0.20;;;;;;;6.89;71.81;97106.44;5055430;28;20040;-72
2023/11/13 01:39:24;;;;;;;0.20;0.10;;;;;;;6.84;72.14;97102.59;5054095;28;20037;-72
2023/11/13 01:41:50;;;;;;;1.05;0.10;;;;;;;6.78;71.62;97097.97;5035248;28;20036;-72
2023/11/13 01:44:15;;;;;;;0.45;0.10;;;;;;;6.72;71.87;97094.94;5052032;28;20041;-72
2023/11/13 01:46:42;;;;;;;0.10;0.10;;;;;;;6.73;71.86;97112.56;5054798;28;20104;-73
2023/11/13 01:49:09;;;;;;;0.50;0.00;;;;;;;6.55;71.32;97098.63;5054637;28;20439;-72
2023/11/13 01:51:35;;;;;;;0.40;0.10;;;;;;;6.44;71.84;97113.88;5052757;28;20106;-73
2023/11/13 01:54:02;;;;;;;0.15;0.10;;;;;;;6.35;71.84;97088.31;5054371;28;20039;-72
2023/11/13 01:56:30;;;;;;;0.10;0.10;;;;;;;6.50;71.55;97132.81;5054437;28;20071;-70
2023/11/13 01:58:57;;;;;;;0.30;0.15;;;;;;;6.49;71.47;97137.31;5052082;28;20064;-73
2023/11/13 02:01:25;;;;;;;0.10;0.10;;;;;;;6.41;71.64;97126.69;5039119;28;20036;-72
2023/11/13 02:03:55;;;;;;;0.45;0.10;;;;;;;6.43;72.09;97130.84;5053909;28;20066;-73
2023/11/13 02:06:22;;;;;;;2.30;0.20;;;;;;;6.35;72.22;97128.19;5053160;28;20029;-72
2023/11/13 02:08:48;;;;;;;0.13;0.10;;;;;;;6.43;72.00;97128.19;5053280;28;20099;-73
2023/11/13 02:11:15;;;;;;;0.20;0.20;;;;;;;6.22;71.96;97107.41;5053395;28;20028;-73
2023/11/13 02:13:40;;;;;;;0.10;0.10;;;;;;;6.41;71.63;97130.16;5053101;28;20094;-70
2023/11/13 02:16:06;;;;;;;0.10;0.10;;;;;;;6.46;71.69;97142.97;5053806;28;20428;-73
2023/11/13 02:18:36;;;;;;;0.32;0.10;;;;;;;6.49;71.65;97141.78;5051999;28;20036;-73
2023/11/13 02:21:02;;;;;;;0.28;0.20;;;;;;;6.43;71.49;97138.00;5053231;28;20448;-73
2023/11/13 02:23:28;;;;;;;0.30;0.10;;;;;;;6.35;71.98;97125.50;5054035;28;20132;-72
2023/11/13 02:25:55;;;;;;;2.22;0.25;;;;;;;6.39;72.25;97145.44;5053423;28;20033;-72
2023/11/13 02:28:22;;;;;;;0.82;0.10;;;;;;;6.40;71.97;97133.00;5054282;28;20033;-72
2023/11/13 02:30:48;;;;;;;0.10;0.10;;;;;;;6.41;72.15;97139.97;5054076;28;20048;-74
2023/11/13 02:33:14;;;;;;;0.10;0.10;;;;;;;6.39;71.75;97139.28;5056164;28;20432;-72
2023/11/13 02:35:39;;;;;;;0.17;0.10;;;;;;;6.41;71.71;97137.31;5054137;28;20044;-71
2023/11/13 02:38:05;;;;;;;0.98;0.20;;;;;;;6.39;71.50;97144.59;5036564;28;20030;-72
2023/11/13 02:40:31;;;;;;;0.63;0.40;;;;;;;6.36;71.92;97145.78;5033591;28;20048;-71
2023/11/13 02:42:57;;;;;;;0.50;0.20;;;;;;;6.32;71.93;97145.25;5035316;28;20479;-71
2023/11/13 02:45:23;;;;;;;0.20;0.20;;;;;;;6.36;71.74;97148.44;5032700;28;20029;-72
2023/11/13 02:47:51;;;;;;;0.40;0.25;;;;;;;6.34;71.55;97158.41;5032189;28;20512;-72
2023/11/13 02:50:18;;;;;;;0.30;0.20;;;;;;;6.31;71.33;97148.09;5033645;28;20033;-70
2023/11/13 02:52:44;;;;;;;0.43;0.20;;;;;;;6.28;71.21;97153.75;5034941;28;20407;-72
2023/11/13 02:55:09;;;;;;;0.20;0.20;;;;;;;6.20;71.19;97159.00;5032159;28;20040;-72
2023/11/13 02:57:36;;;;;;;1.20;0.30;;;;;;;6.19;71.57;97166.16;5048435;28;20061;-72
2023/11/13 03:00:06;;;;;;;0.30;0.25;;;;;;;6.14;71.49;97169.31;5053343;28;20044;-71
2023/11/13 03:02:33;;;;;;;0.65;0.30;;;;;;;6.07;71.89;97176.25;5052530;28;20044;-72
2023/11/13 03:04:59;;;;;;;0.35;0.35;;;;;;;6.04;72.02;97173.94;5052584;28;20120;-72
2023/11/13 03:07:25;;;;;;;1.40;0.40;;;;;;;5.98;72.24;97180.69;5039682;28;20120;-72
2023/11/13 03:09:53;;;;;;;0.35;0.30;;;;;;;5.78;71.84;97150.88;5034176;28;20033;-72
2023/11/13 03:12:21;;;;;;;0.47;0.40;;;;;;;5.90;72.24;97188.59;5034895;28;20055;-73
2023/11/13 03:14:48;;;;;;;2.47;0.40;;;;;;;5.87;72.34;97189.75;5034053;28;20444;-72
2023/11/13 03:17:14;;;;;;;0.57;0.30;;;;;;;5.91;72.59;97192.09;5033461;28;20026;-72
2023/11/13 03:19:39;;;;;;;0.47;0.40;;;;;;;5.87;72.50;97189.75;5033377;28;20435;-73
2023/11/13 03:22:05;;;;;;;2.67;0.73;;;;;;;5.84;72.12;97187.44;5034157;28;20083;-71
2023/11/13 03:24:31;;;;;;;0.85;0.40;;;;;;;5.81;72.15;97187.75;5015711;28;20045;-72
2023/11/13 03:26:57;;;;;;;1.45;0.45;;;;;;;5.71;72.28;97192.31;5031618;28;20045;-71
2023/11/13 03:29:25;;;;;;;0.88;0.40;;;;;;;5.73;72.86;97196.50;5032873;28;20025;-72
2023/11/13 03:31:51;;;;;;;1.65;0.50;;;;;;;5.65;72.65;97191.13;5033299;28;20474;-73
2023/11/13 03:34:20;;;;;;;0.90;0.47;;;;;;;5.67;72.96;97198.94;5034708;28;20033;-72
2023/11/13 03:36:46;;;;;;;0.55;0.40;;;;;;;5.68;72.59;97197.97;5033547;28;20051;-73
2023/11/13 03:39:12;;;;;;;0.40;0.35;;;;;;;5.45;72.79;97158.69;5050508;28;20041;-72
2023/11/13 03:41:38;;;;;;;1.27;0.57;;;;;;;5.54;72.72;97165.69;5052070;28;20028;-71
2023/11/13 03:44:04;;;;;;;0.52;0.52;;;;;;;5.80;72.12;97204.66;5052430;28;20355;-67
2023/11/13 03:46:30;;;;;;;0.52;0.50;;;;;;;5.73;72.19;97208.94;5051886;28;20029;-72
2023/11/13 03:48:56;;;;;;;1.52;0.60;;;;;;;5.71;72.23;97205.59;5052306;28;20033;-72
2023/11/13 03:51:26;;;;;;;0.88;0.65;;;;;;;5.63;72.55;97194.94;5050622;28;20111;-72
2023/11/13 03:53:52;;;;;;;1.25;0.60;;;;;;;5.65;72.40;97203.59;5049888;28;20028;-70
2023/11/13 03:56:25;;;;;;;0.88;0.50;;;;;;;5.72;72.10;97201.94;5052996;28;20098;-72
2023/11/13 03:58:51;;;;;;;0.90;0.60;;;;;;;5.58;71.92;97198.06;5049829;28;20060;-71
2023/11/13 04:01:19;;;;;;;0.63;0.52;;;;;;;5.64;72.70;97215.19;5052584;28;20033;-72
2023/11/13 04:03:45;;;;;;;1.73;0.50;;;;;;;5.42;72.33;97172.28;5045006;28;20055;-72
2023/11/13 04:06:11;;;;;;;0.85;0.50;;;;;;;5.65;72.72;97207.06;5042007;28;20028;-73
2023/11/13 04:08:37;;;;;;;1.35;0.52;;;;;;;5.66;72.69;97210.56;5041710;28;20037;-71
2023/11/13 04:11:06;;;;;;;0.50;0.50;;;;;;;5.68;72.60;97220.03;5038792;28;20017;-74
2023/11/13 04:13:32;;;;;;;0.50;0.50;;;;;;;5.45;72.94;97182.56;5042248;28;20033;-72
2023/11/13 04:16:02;;;;;;;0.70;0.68;;;;;;;5.64;72.69;97221.31;5042324;28;20032;-73
2023/11/13 04:18:29;;;;;;;1.55;0.50;;;;;;;5.63;73.03;97224.97;5042719;28;20029;-74
2023/11/13 04:20:55;;;;;;;1.70;0.60;;;;;;;5.61;73.05;97229.59;5041662;28;20037;-73
2023/11/13 04:23:23;;;;;;;0.98;0.40;;;;;;;5.58;73.22;97240.53;5041099;28;20053;-73
2023/11/13 04:25:50;;;;;;;1.40;0.40;;;;;;;5.45;73.36;97239.13;5025775;28;20488;-72
2023/11/13 04:28:18;;;;;;;1.30;0.50;;;;;;;5.50;73.57;97246.63;5040835;28;20122;-71
2023/11/13 04:30:43;;;;;;;1.08;0.50;;;;;;;5.43;73.80;97240.28;5038930;28;20161;-72
2023/11/13 04:33:09;;;;;;;0.80;0.40;;;;;;;5.44;73.77;97244.59;5041922;28;20111;-72
2023/11/13 04:35:35;;;;;;;0.88;0.30;;;;;;;5.56;73.09;97250.47;5042139;28;20032;-73
2023/11/13 04:38:01;;;;;;;0.50;0.40;;;;;;;5.38;73.48;97239.91;5040843;28;20025;-71
2023/11/13 04:40:26;;;;;;;2.00;0.47;;;;;;;5.39;73.91;97257.50;5040635;28;20068;-72
2023/11/13 04:42:52;;;;;;;0.60;0.40;;;;;;;5.35;73.95;97256.16;5041357;28;20432;-73
2023/11/13 04:45:18;;;;;;;0.22;0.20;;;;;;;5.11;74.12;97231.91;5041258;28;20042;-71
2023/11/13 04:47:44;;;;;;;1.33;0.47;;;;;;;5.35;73.63;97266.75;5039803;28;20025;-72
2023/11/13 04:50:10;;;;;;;0.63;0.50;;;;;;;5.34;74.29;97287.13;5040073;28;20128;-73
2023/11/13 04:52:35;;;;;;;0.40;0.30;;;;;;;5.35;74.40;97275.53;5042374;28;20087;-73
2023/11/13 04:55:01;;;;;;;1.23;0.30;;;;;;;5.21;73.91;97245.09;5029559;28;20029;-73
2023/11/13 04:57:29;;;;;;;2.03;0.50;;;;;;;5.46;73.75;97288.56;5045209;28;20114;-73
2023/11/13 04:59:54;;;;;;;1.38;0.52;;;;;;;5.49;74.40;97289.25;5045800;28;20417;-73
2023/11/13 05:02:20;;;;;;;1.45;0.50;;;;;;;5.48;74.11;97298.19;5030959;28;20028;-74
2023/11/13 05:04:47;;;;;;;0.98;0.43;;;;;;;5.45;73.73;97297.53;5045760;28;20506;-73
2023/11/13 05:07:13;;;;;;;0.90;0.40;;;;;;;5.26;73.70;97255.25;5046077;28;20436;-71
2023/11/13 05:09:38;;;;;;;0.47;0.40;;;;;;;5.48;73.84;97288.41;5037607;28;20033;-71
2023/11/13 05:12:04;;;;;;;1.48;0.32;;;;;;;5.25;73.90;97259.69;5043142;28;20033;-73
2023/11/13 05:14:30;;;;;;;0.80;0.40;;;;;;;5.44;74.15;97289.69;5043512;28;20033;-72
2023/11/13 05:16:56;;;;;;;1.00;0.60;;;;;;;5.27;73.98;97260.38;5042538;28;20337;-72
2023/11/13 05:19:23;;;;;;;1.30;0.60;;;;;;;5.48;74.16;97303.50;5045552;28;20079;-73
2023/11/13 05:21:49;;;;;;;1.40;0.60;;;;;;;5.53;73.64;97325.91;5043752;28;20036;-73
2023/11/13 05:24:15;;;;;;;2.13;0.77;;;;;;;5.47;73.97;97300.00;5044136;28;20041;-71
2023/11/13 05:26:41;;;;;;;0.90;0.40;;;;;;;5.45;74.47;97308.13;5043268;28;20040;-71
2023/11/13 05:29:06;;;;;;;1.27;0.80;;;;;;;5.48;74.61;97311.47;5044374;28;20034;-73
2023/11/13 05:31:32;;;;;;;2.25;0.90;;;;;;;5.43;74.43;97306.59;5044118;28;20363;-73
2023/11/13 05:33:57;;;;;;;1.25;0.90;;;;;;;5.48;74.34;97317.59;5043890;28;20051;-73
2023/11/13 05:36:23;;;;;;;3.53;0.73;;;;;;;5.56;74.42;97325.63;5053298;28;20035;-69
2023/11/13 05:38:49;;;;;;;1.52;0.80;;;;;;;5.30;74.35;97270.72;5041905;28;20165;-65
2023/11/13 05:41:15;;;;;;;2.35;0.70;;;;;;;5.55;74.25;97325.78;5034764;28;20037;-67
2023/11/13 05:43:41;;;;;;;2.30;0.93;;;;;;;5.30;74.32;97283.97;5034578;28;20099;-67
2023/11/13 05:46:07;;;;;;;1.23;0.90;;;;;;;5.53;74.57;97317.97;5034732;28;20357;-70
2023/11/13 05:48:33;;;;;;;1.60;0.80;;;;;;;5.60;74.84;97334.09;5035327;28;20037;-68
2023/11/13 05:51:00;;;;;;;1.48;0.80;;;;;;;5.61;74.91;97330.47;5034184;28;20144;-69
2023/11/13 05:53:26;;;;;;;1.45;0.80;;;;;;;5.64;74.55;97332.00;5034237;28;20064;-71
2023/11/13 05:55:52;;;;;;;1.88;0.77;;;;;;;5.70;74.75;97339.34;5034711;28;20112;-69
2023/11/13 05:58:18;;;;;;;1.00;0.90;;;;;;;5.73;74.75;97344.31;5034035;28;20153;-69
2023/11/13 06:00:44;;;;;;;2.75;0.85;;;;;;;5.76;74.50;97336.06;5034670;28;20029;-69
2023/11/13 06:03:10;;;;;;;1.10;0.80;;;;;;;5.80;74.74;97352.50;5035521;28;20424;-69
2023/11/13 06:05:36;;;;;;;4.07;0.80;;;;;;;5.84;74.29;97357.38;5033443;28;20033;-69
2023/11/13 06:08:02;;;;;;;0.95;0.70;;;;;;;5.86;74.70;97351.88;5039207;28;20039;-70
2023/11/13 06:10:28;;;;;;;0.80;0.60;;;;;;;5.88;74.48;97366.69;5044289;28;20029;-69
2023/11/13 06:12:54;;;;;;;2.25;1.00;;;;;;;5.91;74.86;97378.00;5033826;28;20514;-68
2023/11/13 06:15:20;;;;;;;1.10;0.73;;;;;;;5.98;74.58;97382.53;5049690;28;20021;-69
2023/11/13 06:17:46;;;;;;;1.90;1.20;;;;;;;6.01;73.84;97376.09;5034228;28;20041;-70
2023/11/13 06:20:13;;;;;;;1.85;1.20;;;;;;;5.99;73.82;97389.50;5036963;28;20059;-70
2023/11/13 06:22:44;;;;;;;2.78;1.55;;;;;;;6.05;73.95;97401.38;5034310;28;20034;-73
2023/11/13 06:25:11;;;;;;;1.50;0.85;;;;;;;5.98;73.68;97402.94;5034075;28;20333;-71
2023/11/13 06:27:38;;;;;;;2.50;1.10;;;;;;;5.94;74.24;97413.06;5033967;28;20041;-72
2023/11/13 06:30:05;;;;;;;1.30;1.00;;;;;;;5.95;73.83;97421.84;5042221;28;20075;-72
2023/11/13 06:32:31;;;;;;;3.38;1.00;;;;;;;5.97;73.71;97423.38;5052938;28;20037;-72
2023/11/13 06:34:57;;;;;;;1.85;1.30;;;;;;;5.90;73.06;97416.97;5052025;28;20021;-72
2023/11/13 06:37:23;;;;;;;5.57;1.42;;;;;;;5.91;72.88;97437.25;5053417;28;20040;-71
2023/11/13 06:39:49;;;;;;;3.15;1.30;;;;;;;5.91;72.83;97441.72;5054820;28;20112;-72
2023/11/13 06:42:15;;;;;;;2.65;1.30;;;;;;;5.83;72.38;97446.00;5060777;28;20137;-70
2023/11/13 06:44:41;;;;;;;1.25;1.10;;;;;;;5.73;72.27;97438.09;5058680;28;20514;-72
2023/11/13 06:47:07;;;;;;;2.97;1.13;;;;;;;5.76;72.00;97452.88;5058621;28;20048;-72
2023/11/13 06:49:38;;;;;;;2.38;0.70;;;;;;;5.71;71.30;97471.09;5062396;28;20102;-72
2023/11/13 06:52:05;;;;;;;0.40;0.40;;;;;;;5.61;71.65;97468.50;5044868;28;20037;-71
2023/11/13 06:54:31;;;;;;;2.28;0.80;;;;;;;5.53;71.79;97481.69;5034842;28;20441;-72
2023/11/13 06:56:56;;;;;;;0.88;0.63;;;;;;;5.50;71.52;97482.81;5034654;28;20232;-71
2023/11/13 06:59:22;;;;;;;0.45;0.40;;;;;;;5.22;71.49;97448.34;5053468;28;20033;-73
2023/11/13 07:01:48;;;;;;;0.73;0.40;;;;;;;5.39;71.17;97485.69;5055926;28;20040;-71
2023/11/13 07:04:14;;;;;;;0.70;0.30;;;;;;;5.14;71.74;97470.31;5054105;28;20043;-66
2023/11/13 07:06:41;;;;;;;1.60;0.60;;;;;;;5.28;71.85;97494.69;5053967;28;20029;-72
2023/11/13 07:09:10;;;;;;;0.85;0.50;;;;;;;5.33;71.67;97497.72;5053133;28;20051;-70
2023/11/13 07:11:42;;;;;;;3.80;0.60;;;;;;;5.35;71.65;97502.91;5037385;28;20043;-73
2023/11/13 07:14:12;;;;;;;0.55;0.50;;;;;;;5.37;71.08;97530.94;5049530;28;20037;-72
2023/11/13 07:16:42;;;;;;;1.67;0.50;;;;;;;5.24;71.20;97514.53;5052034;28;20067;-72
2023/11/13 07:19:08;;;;;;;0.82;0.40;;;;;;;5.25;70.61;97513.56;5054051;28;20021;-72
2023/11/13 07:21:38;;;;;;;1.20;0.30;;;;;;;5.31;70.00;97532.38;5053200;28;20036;-71
2023/11/13 07:24:05;;;;;;;0.82;0.43;;;;;;;5.24;70.16;97531.28;5052748;28;20044;-70
2023/11/13 07:26:32;;;;;;;3.05;0.60;;;;;;;5.23;69.41;97534.09;5052498;28;20102;-72
2023/11/13 07:28:58;;;;;;;1.58;0.50;;;;;;;5.22;69.38;97538.56;5050859;28;20026;-72
2023/11/13 07:31:25;;;;;;;2.30;0.60;;;;;;;5.17;69.16;97556.72;5052962;28;20025;-71
2023/11/13 07:33:51;;;;;;;1.15;0.52;;;;;;;5.19;69.25;97549.47;5052840;28;20029;-72
2023/11/13 07:36:16;;;;;;;4.22;2.08;;;;;;;5.13;69.52;97556.19;5052729;28;20071;-71
2023/11/13 07:38:43;;;;;;;1.27;0.60;;;;;;;5.06;69.75;97559.56;5052063;28;20455;-73
2023/11/13 07:41:11;;;;;;;2.28;0.82;;;;;;;4.83;69.88;97522.81;5040975;28;20029;-72
2023/11/13 07:43:45;;;;;;;1.00;0.30;;;;;;;5.12;69.76;97569.59;5032829;28;20071;-72
2023/11/13 07:46:14;;;;;;;0.93;0.50;;;;;;;5.04;69.58;97575.63;5032470;28;20441;-70
2023/11/13 07:48:41;;;;;;;2.05;0.70;;;;;;;5.09;69.19;97570.72;5042193;28;20076;-67
2023/11/13 07:51:07;;;;;;;1.73;0.40;;;;;;;5.09;69.40;97583.16;5045848;28;20474;-72
2023/11/13 07:53:38;;;;;;;2.38;0.43;;;;;;;5.06;69.23;97584.28;5032732;28;20123;-72
2023/11/13 07:56:04;;;;;;;1.02;0.50;;;;;;;5.07;69.11;97595.72;5042649;28;20028;-72
2023/11/13 07:58:30;;;;;;;1.50;0.40;;;;;;;5.02;69.64;97590.84;5046923;28;20116;-72
2023/11/13 08:00:57;;;;;;;1.58;0.50;;;;;;;4.93;69.64;97597.84;5032231;28;20125;-72
2023/11/13 08:03:24;;;;;;;0.60;0.40;;;;;;;4.99;69.30;97605.22;5039937;28;20040;-72
2023/11/13 08:05:50;;;;;;;2.80;0.60;;;;;;;5.06;69.48;97602.84;5039381;28;20026;-72
2023/11/13 08:08:16;;;;;;;1.90;0.57;;;;;;;5.07;68.89;97611.66;5034295;28;20045;-71
2023/11/13 08:10:46;;;;;;;2.95;0.60;;;;;;;5.08;68.92;97619.44;5048408;28;20025;-72
2023/11/13 08:13:14;;;;;;;2.17;0.90;;;;;;;5.11;69.12;97620.97;5038828;28;20400;-72
2023/11/13 08:15:42;;;;;;;1.65;0.80;;;;;;;5.16;68.76;97624.84;5052150;28;20200;-71
2023/11/13 08:18:13;;;;;;;1.23;0.60;;;;;;;5.22;68.33;97634.06;5047268;28;20171;-69
2023/11/13 08:20:44;;;;;;;3.70;0.47;;;;;;;5.34;68.43;97629.41;5035429;28;20086;-71
2023/11/13 08:23:10;;;;;;;1.70;0.38;;;;;;;5.31;68.19;97635.03;5031873;28;20036;-71
2023/11/13 08:25:38;;;;;;;2.55;0.60;;;;;;;5.29;67.83;97651.06;5044411;28;20129;-66
2023/11/13 08:28:04;;;;;;;2.05;0.60;;;;;;;5.26;67.07;97630.13;5053497;28;20055;-66
2023/11/13 08:30:30;;;;;;;1.33;0.52;;;;;;;5.26;66.95;97639.94;5053139;28;20189;-71
2023/11/13 08:32:56;;;;;;;3.03;0.50;;;;;;;5.16;67.41;97643.44;5047525;28;20025;-71
2023/11/13 08:35:22;;;;;;;0.60;0.50;;;;;;;5.15;67.01;97639.09;5043448;28;20356;-69
2023/11/13 08:37:47;;;;;;;1.65;0.47;;;;;;;5.15;67.43;97646.25;5049047;28;20073;-64
2023/11/13 08:40:23;;;;;;;0.85;0.50;;;;;;;5.32;67.19;97661.41;5047208;28;20060;-72
2023/11/13 08:42:50;;;;;;;3.90;0.40;;;;;;;5.32;66.79;97653.47;5044367;28;20056;-70
2023/11/13 08:45:15;;;;;;;2.45;0.68;;;;;;;5.17;66.04;97634.47;5042145;28;20064;-70
2023/11/13 08:47:49;;;;;;;2.88;0.88;;;;;;;5.46;65.78;97664.56;5044422;28;20122;-70
2023/11/13 08:50:16;;;;;;;1.40;0.68;;;;;;;5.43;65.78;97670.19;5046454;28;20025;-69
2023/11/13 08:52:44;;;;;;;1.20;0.95;;;;;;;5.49;66.06;97669.59;5036192;28;20033;-70
2023/11/13 08:55:10;;;;;;;4.68;0.88;;;;;;;5.48;65.53;97691.81;5034707;28;20448;-67
2023/11/13 08:57:41;;;;;;;1.40;0.60;;;;;;;5.49;65.11;97676.72;5035479;28;20116;-66
2023/11/13 09:00:09;;;;;;;2.45;1.73;;;;;;;5.47;65.17;97679.50;5036306;28;20141;-66
2023/11/13 09:02:35;;;;;;;3.75;0.82;;;;;;;5.51;64.81;97696.00;5041354;28;20117;-66
2023/11/13 09:05:05;;;;;;;1.08;0.82;;;;;;;5.55;65.02;97692.94;5043521;28;20029;-65
2023/11/13 09:07:31;;;;;;;1.60;0.63;;;;;;;5.56;65.25;97699.06;5052049;28;20033;-67
2023/11/13 09:10:07;;;;;;;0.88;0.43;;;;;;;5.54;64.55;97696.53;5041049;28;20029;-66
2023/11/13 09:12:35;;;;;;;2.17;0.70;;;;;;;5.55;65.17;97700.03;5036827;28;20110;-65
2023/11/13 09:15:03;;;;;;;1.63;0.98;;;;;;;5.57;65.37;97712.19;5034840;28;20029;-67
2023/11/13 09:17:32;;;;;;;2.65;1.58;;;;;;;5.70;65.54;97708.38;5035828;28;20666;-64
2023/11/13 09:19:57;;;;;;;1.58;0.70;;;;;;;5.76;64.47;97710.44;5044578;28;20029;-66
2023/11/13 09:22:24;;;;;;;3.15;1.02;;;;;;;5.83;64.11;97710.69;5040775;28;20029;-66
2023/11/13 09:24:51;;;;;;;2.83;0.80;;;;;;;5.80;63.78;97713.66;5051662;28;20045;-65
2023/11/13 09:27:16;;;;;;;3.13;0.75;;;;;;;5.86;63.10;97705.09;5050845;28;20065;-64
2023/11/13 09:29:43;;;;;;;1.38;0.70;;;;;;;5.94;63.26;97717.63;5038962;28;20482;-65
2023/11/13 09:32:10;;;;;;;1.02;0.60;;;;;;;5.89;62.90;97710.94;5052758;28;20099;-64
2023/11/13 09:34:36;;;;;;;3.05;0.80;;;;;;;5.89;62.81;97720.72;5041937;28;20120;-66
2023/11/13 09:37:06;;;;;;;1.75;0.55;;;;;;;5.94;62.69;97715.84;5034734;28;20029;-64
2023/11/13 09:39:35;;;;;;;2.03;0.70;;;;;;;5.99;62.73;97720.69;5037839;28;20115;-69
2023/11/13 09:42:04;;;;;;;1.00;0.60;;;;;;;6.08;62.02;97734.94;5053497;28;20455;-69
2023/11/13 09:44:33;;;;;;;0.57;0.38;;;;;;;6.00;61.69;97732.97;5053366;28;20025;-69
2023/11/13 09:47:03;;;;;;;1.58;0.35;;;;;;;5.96;61.58;97736.91;5053256;28;20061;-66
2023/11/13 09:49:32;;;;;;;1.20;0.57;;;;;;;5.97;61.88;97739.44;5048131;28;20056;-70
2023/11/13 09:52:02;;;;;;;1.00;0.50;;;;;;;5.91;62.33;97744.50;5054377;28;20039;-70
2023/11/13 09:54:30;;;;;;;1.00;0.60;;;;;;;5.96;62.68;97751.06;5052830;28;20039;-71
2023/11/13 09:57:00;;;;;;;1.33;0.50;;;;;;;5.96;61.60;97744.88;5052900;28;20110;-73
2023/11/13 09:59:33;;;;;;;0.90;0.60;;;;;;;5.93;61.72;97758.47;5051648;28;20099;-70
2023/11/13 10:02:00;;;;;;;1.15;0.75;;;;;;;5.82;62.35;97757.69;5053748;28;20033;-70
2023/11/13 10:04:26;;;;;;;1.17;0.50;;;;;;;5.82;61.99;97741.75;5048606;28;20104;-70
2023/11/13 10:06:53;;;;;;;0.73;0.30;;;;;;;5.78;62.43;97750.94;5054424;28;20033;-70
2023/11/13 10:09:26;;;;;;;2.05;0.50;;;;;;;5.77;62.54;97762.56;5051875;28;20037;-66
2023/11/13 10:11:52;;;;;;;1.50;0.80;;;;;;;5.73;62.83;97770.00;5053601;28;20079;-69
2023/11/13 10:14:18;;;;;;;1.30;0.80;;;;;;;5.77;62.93;97761.75;5053302;28;20028;-66
2023/11/13 10:16:54;;;;;;;2.22;1.23;;;;;;;5.87;63.00;97765.19;5051198;28;20021;-67
2023/11/13 10:19:19;;;;;;;;;;;;;;;6.17;63.53;97761.47;5036030;28;20380;-67
2023/11/13 10:21:45;;;;;;;;;;;;;;;6.26;62.48;97773.03;5033826;28;19916;-68
2023/11/13 10:24:21;;;;;;;2.05;0.60;;;;;;;5.96;62.16;97774.97;5033840;28;20349;-67
2023/11/13 10:26:51;;;;;;;1.58;0.80;;;;;;;5.76;62.47;97790.09;5041894;28;20138;-69
2023/11/13 10:29:19;;;;;;;2.38;0.73;;;;;;;5.67;62.98;97775.88;5045195;28;20059;-71
2023/11/13 10:31:44;;;;;;;1.00;0.75;;;;;;;5.57;63.11;97781.22;5053745;28;20032;-69
2023/11/13 10:34:11;;;;;;;1.10;0.55;;;;;;;5.41;63.13;97781.78;5052266;28;20028;-69
2023/11/13 10:36:37;;;;;;;1.80;0.80;;;;;;;5.40;63.49;97785.41;5048226;28;20042;-68
2023/11/13 10:39:11;;;;;;;1.08;0.80;;;;;;;5.46;63.18;97790.16;5050935;28;20033;-71
2023/11/13 10:41:44;;;;;;;1.00;0.60;;;;;;;5.54;62.86;97801.88;5053405;28;20094;-67
2023/11/13 10:44:27;;;;;;;0.95;0.73;;;;;;;5.58;63.04;97788.19;5053271;28;20029;-74
2023/11/13 10:46:52;;;;;;;3.28;0.82;;;;;;;5.68;62.66;97800.59;5052846;28;20040;-71
2023/11/13 10:49:19;;;;;;;3.45;0.90;;;;;;;5.73;62.44;97803.66;5046654;28;20483;-65
2023/11/13 10:51:50;;;;;;;0.70;0.57;;;;;;;5.87;62.10;97807.69;5047163;28;20032;-66
2023/11/13 10:54:17;;;;;;;3.70;1.00;;;;;;;5.91;62.31;97819.72;5053662;28;20116;-70
2023/11/13 10:56:49;;;;;;;2.22;0.52;;;;;;;5.93;61.70;97835.50;5051922;28;20040;-69
2023/11/13 10:59:15;;;;;;;0.80;0.55;;;;;;;5.57;61.67;97804.25;5039281;28;20034;-70
2023/11/13 11:01:43;;;;;;;0.82;0.50;;;;;;;5.71;61.99;97848.09;5032996;28;20044;-71
2023/11/13 11:04:11;;;;;;;5.38;0.80;;;;;;;5.67;62.81;97857.34;5032182;28;20033;-70
2023/11/13 11:06:40;;;;;;;0.93;0.50;;;;;;;5.74;61.97;97840.72;5035808;28;20037;-69
2023/11/13 11:09:07;;;;;;;0.40;0.22;;;;;;;5.58;61.76;97824.50;5032359;28;20052;-70
2023/11/13 11:11:36;;;;;;;1.52;0.57;;;;;;;5.75;62.10;97846.84;5032598;28;20029;-69
2023/11/13 11:14:29;;;;;;;1.38;0.50;;;;;;;5.83;62.77;97854.09;5032748;28;20348;-71
2023/11/13 11:17:05;;;;;;;2.28;0.60;;;;;;;5.69;62.28;97850.06;5036991;28;20041;-72
2023/11/13 11:19:44;;;;;;;0.68;0.50;;;;;;;5.74;62.44;97863.75;5037375;28;20059;-70
2023/11/13 11:22:19;;;;;;;0.82;0.40;;;;;;;5.71;62.75;97862.22;5050779;28;20494;-69
2023/11/13 11:25:44;;;;;;;1.30;0.45;;;;;;;5.71;63.69;97867.53;5043878;28;20077;-70
2023/11/13 11:28:36;;;;;;;2.05;0.65;;;;;;;5.68;63.23;97862.53;5032931;28;20041;-72
2023/11/13 11:31:33;;;;;;;1.13;0.50;;;;;;;5.76;63.10;97869.75;5029564;28;20140;-69
2023/11/13 11:33:59;;;;;;;1.00;0.55;;;;;;;5.73;62.80;97870.91;5041312;28;20121;-70
2023/11/13 11:36:29;;;;;;;1.63;0.40;;;;;;;5.77;62.45;97881.22;5031835;28;20045;-70
2023/11/13 11:39:15;;;;;;;0.43;0.40;;;;;;;5.79;61.86;97882.78;5051289;28;20122;-70
2023/11/13 11:41:42;;;;;;;1.45;0.38;;;;;;;5.51;61.96;97861.38;5017952;28;20069;-70
2023/11/13 11:44:12;;;;;;;0.93;0.43;;;;;;;5.69;62.13;97895.19;5031906;28;20033;-68